createdAt,value
2022-11-04T00:01:43.227Z,100.00
2022-11-04T00:04:12.117Z,100.00
2022-11-04T00:06:40.199Z,100.00
2022-11-04T00:09:10.084Z,100.00
2022-11-04T00:11:56.215Z,100.00
2022-11-04T00:14:24.014Z,100.00
2022-11-04T00:17:10.526Z,100.00
2022-11-04T00:19:58.484Z,100.00
2022-11-04T00:22:44.567Z,100.00
2022-11-04T00:25:31.354Z,100.00
2022-11-04T00:28:32.779Z,100.00
2022-11-04T00:31:22.097Z,100.00
2022-11-04T00:33:52.053Z,100.00
2022-11-04T00:36:20.497Z,100.00
2022-11-04T00:38:48.300Z,100.00
2022-11-04T00:41:28.362Z,100.00
2022-11-04T00:43:56.631Z,100.00
2022-11-04T00:46:24.923Z,100.00
2022-11-04T00:48:52.600Z,100.00
2022-11-04T00:51:21.419Z,100.00
2022-11-04T00:53:49.904Z,100.00
2022-11-04T00:56:17.839Z,100.00
2022-11-04T00:58:45.350Z,100.00
2022-11-04T01:01:17.955Z,100.00
2022-11-04T01:03:50.605Z,100.00
2022-11-04T01:06:19.675Z,100.00
2022-11-04T01:08:48.167Z,100.00
2022-11-04T01:11:16.509Z,100.00
2022-11-04T01:13:44.017Z,100.00
2022-11-04T01:16:12.296Z,100.00
2022-11-04T01:18:40.720Z,100.00
2022-11-04T01:21:10.810Z,100.00
2022-11-04T01:23:39.088Z,100.00
2022-11-04T01:26:11.865Z,100.00
2022-11-04T01:28:39.818Z,100.00
2022-11-04T01:31:21.448Z,100.00
2022-11-04T01:33:50.535Z,100.00
2022-11-04T01:36:19.449Z,100.00
2022-11-04T01:38:47.512Z,100.00
2022-11-04T01:41:19.302Z,100.00
2022-11-04T01:43:54.226Z,100.00
2022-11-04T01:46:27.713Z,100.00
2022-11-04T01:48:59.852Z,100.00
2022-11-04T01:51:29.268Z,100.00
2022-11-04T01:54:22.651Z,100.00
2022-11-04T01:56:50.871Z,100.00
2022-11-04T01:59:27.579Z,100.00
2022-11-04T02:01:55.144Z,100.00
2022-11-04T02:04:26.433Z,100.00
2022-11-04T02:06:57.248Z,100.00
2022-11-04T02:09:27.618Z,100.00
2022-11-04T02:12:13.715Z,100.00
2022-11-04T02:14:41.640Z,100.00
2022-11-04T02:17:18.308Z,100.00
2022-11-04T02:19:48.813Z,100.00
2022-11-04T02:22:36.890Z,100.00
2022-11-04T02:25:07.499Z,100.00
2022-11-04T02:27:56.823Z,100.00
2022-11-04T02:30:24.449Z,100.00
2022-11-04T02:32:59.609Z,100.00
2022-11-04T02:35:40.643Z,100.00
2022-11-04T02:38:34.158Z,100.00
2022-11-04T02:41:10.749Z,100.00
2022-11-04T02:43:59.632Z,100.00
2022-11-04T02:46:48.811Z,100.00
2022-11-04T02:49:35.250Z,100.00
2022-11-04T02:52:10.996Z,100.00
2022-11-04T02:54:50.431Z,100.00
2022-11-04T02:57:22.134Z,100.00
2022-11-04T02:59:55.853Z,100.00
2022-11-04T03:02:28.046Z,100.00
2022-11-04T03:05:00.848Z,100.00
2022-11-04T03:07:32.377Z,100.00
2022-11-04T03:10:17.179Z,100.00
2022-11-04T03:13:07.698Z,100.00
2022-11-04T03:15:38.284Z,100.00
2022-11-04T03:18:26.574Z,100.00
2022-11-04T03:20:57.201Z,100.00
2022-11-04T03:23:24.745Z,100.00
2022-11-04T03:25:54.440Z,100.00
2022-11-04T03:28:47.286Z,100.00
2022-11-04T03:31:26.130Z,100.00
2022-11-04T03:33:54.983Z,100.00
2022-11-04T03:36:23.564Z,100.00
2022-11-04T03:38:52.672Z,100.00
2022-11-04T03:41:28.117Z,100.00
2022-11-04T03:43:56.250Z,100.00
2022-11-04T03:46:25.350Z,100.00
2022-11-04T03:48:53.466Z,100.00
2022-11-04T03:51:20.938Z,100.00
2022-11-04T03:53:49.689Z,100.00
2022-11-04T03:56:17.531Z,100.00
2022-11-04T03:59:06.953Z,100.00
2022-11-04T04:01:49.986Z,100.00
2022-11-04T04:04:23.220Z,100.00
2022-11-04T04:06:53.357Z,100.00
2022-11-04T04:09:24.980Z,100.00
2022-11-04T04:12:01.517Z,100.00
2022-11-04T04:14:39.922Z,100.00
2022-11-04T04:17:15.222Z,100.00
2022-11-04T04:19:47.259Z,100.00
2022-11-04T04:22:19.845Z,100.00
2022-11-04T04:25:07.632Z,100.00
2022-11-04T04:27:35.728Z,100.00
2022-11-04T04:30:08.090Z,100.00
2022-11-04T04:32:44.233Z,100.00
2022-11-04T04:35:31.265Z,100.00
2022-11-04T04:38:21.695Z,100.00
2022-11-04T04:41:13.531Z,100.00
2022-11-04T04:44:01.045Z,100.00
2022-11-04T04:46:29.707Z,100.00
2022-11-04T04:49:07.515Z,100.00
2022-11-04T04:51:38.718Z,100.00
2022-11-04T04:54:07.110Z,100.00
2022-11-04T04:56:34.825Z,100.00
2022-11-04T04:59:02.417Z,100.00
2022-11-04T05:01:30.144Z,100.00
2022-11-04T05:03:57.766Z,100.00
2022-11-04T05:06:25.287Z,100.00
2022-11-04T05:08:52.899Z,100.00
2022-11-04T05:11:24.435Z,100.00
2022-11-04T05:13:54.881Z,100.00
2022-11-04T05:16:22.382Z,100.00
2022-11-04T05:18:51.811Z,100.00
2022-11-04T05:21:19.299Z,100.00
2022-11-04T05:23:46.792Z,100.00
2022-11-04T05:26:15.091Z,100.00
2022-11-04T05:28:42.603Z,100.00
2022-11-04T05:31:10.053Z,100.00
2022-11-04T05:33:37.822Z,100.00
2022-11-04T05:36:09.287Z,100.00
2022-11-04T05:38:36.979Z,100.00
2022-11-04T05:41:05.581Z,100.00
2022-11-04T05:43:34.786Z,100.00
2022-11-04T05:46:02.367Z,100.00
2022-11-04T05:48:29.860Z,100.00
2022-11-04T05:50:57.335Z,100.00
2022-11-04T05:53:24.901Z,100.00
2022-11-04T05:55:52.381Z,100.00
2022-11-04T05:58:19.818Z,100.00
2022-11-04T06:00:47.242Z,100.00
2022-11-04T06:03:16.373Z,100.00
2022-11-04T06:05:44.047Z,100.00
2022-11-04T06:08:11.845Z,100.00
2022-11-04T06:10:39.525Z,100.00
2022-11-04T06:13:06.964Z,100.00
2022-11-04T06:15:37.229Z,100.00
2022-11-04T06:18:05.218Z,100.00
2022-11-04T06:20:32.998Z,100.00
2022-11-04T06:23:00.642Z,100.00
2022-11-04T06:25:30.174Z,100.00
2022-11-04T06:27:58.961Z,100.00
2022-11-04T06:30:26.589Z,100.00
2022-11-04T06:32:54.467Z,100.00
2022-11-04T06:35:22.109Z,100.00
2022-11-04T06:37:49.646Z,100.00
2022-11-04T06:40:17.131Z,100.00
2022-11-04T06:42:45.014Z,100.00
2022-11-04T06:45:12.696Z,100.00
2022-11-04T06:47:40.133Z,100.00
2022-11-04T06:50:08.020Z,100.00
2022-11-04T06:52:41.064Z,100.00
2022-11-04T06:55:10.255Z,100.00
2022-11-04T06:57:37.993Z,100.00
2022-11-04T07:00:07.222Z,100.00
2022-11-04T07:02:36.429Z,100.00
2022-11-04T07:05:04.791Z,100.00
2022-11-04T07:07:32.280Z,100.00
2022-11-04T07:10:05.057Z,100.00
2022-11-04T07:12:33.206Z,100.00
2022-11-04T07:15:00.746Z,100.00
2022-11-04T07:17:28.795Z,100.00
2022-11-04T07:19:57.007Z,100.00
2022-11-04T07:22:24.500Z,100.00
2022-11-04T07:24:51.987Z,100.00
2022-11-04T07:27:19.894Z,100.00
2022-11-04T07:29:47.883Z,100.00
2022-11-04T07:32:16.003Z,100.00
2022-11-04T07:34:44.093Z,100.00
2022-11-04T07:37:11.875Z,100.00
2022-11-04T07:39:39.451Z,100.00
2022-11-04T07:42:08.386Z,100.00
2022-11-04T07:44:35.891Z,100.00
2022-11-04T07:47:03.500Z,100.00
2022-11-04T07:49:31.126Z,100.00
2022-11-04T07:51:58.646Z,100.00
2022-11-04T07:54:26.954Z,100.00
2022-11-04T07:56:54.802Z,100.00
2022-11-04T07:59:22.605Z,100.00
2022-11-04T08:01:50.538Z,100.00
2022-11-04T08:04:18.177Z,100.00
2022-11-04T08:06:45.654Z,100.00
2022-11-04T08:09:13.136Z,100.00
2022-11-04T08:11:40.630Z,100.00
2022-11-04T08:14:08.902Z,100.00
2022-11-04T08:16:37.138Z,100.00
2022-11-04T08:19:05.047Z,100.00
2022-11-04T08:21:33.912Z,100.00
2022-11-04T08:24:06.054Z,100.00
2022-11-04T08:26:34.110Z,100.00
2022-11-04T08:29:06.678Z,100.00
2022-11-04T08:31:35.715Z,100.00
2022-11-04T08:34:03.439Z,100.00
2022-11-04T08:36:36.657Z,100.00
2022-11-04T08:39:10.237Z,100.00
2022-11-04T08:41:45.204Z,100.00
2022-11-04T08:44:14.373Z,100.00
2022-11-04T08:46:43.643Z,100.00
2022-11-04T08:49:14.950Z,100.00
2022-11-04T08:51:49.442Z,100.00
2022-11-04T08:54:17.403Z,100.00
2022-11-04T08:56:45.790Z,100.00
2022-11-04T08:59:15.147Z,100.00
2022-11-04T09:01:44.018Z,100.00
2022-11-04T09:04:12.976Z,100.00
2022-11-04T09:06:42.659Z,100.00
2022-11-04T09:09:14.292Z,100.00
2022-11-04T09:11:43.430Z,100.00
2022-11-04T09:14:11.596Z,100.00
2022-11-04T09:16:41.082Z,100.00
2022-11-04T09:19:09.111Z,100.00
2022-11-04T09:21:36.940Z,100.00
2022-11-04T09:24:05.964Z,100.00
2022-11-04T09:26:33.827Z,100.00
2022-11-04T09:29:02.044Z,100.00
2022-11-04T09:31:30.777Z,100.00
2022-11-04T09:33:58.525Z,100.00
2022-11-04T09:36:26.104Z,100.00
2022-11-04T09:38:53.860Z,100.00
2022-11-04T09:41:40.508Z,100.00
2022-11-04T09:45:15.083Z,100.00
2022-11-04T09:47:34.779Z,100.00
2022-11-04T09:50:02.768Z,100.00
2022-11-04T09:52:39.769Z,100.00
2022-11-04T09:55:15.129Z,100.00
2022-11-04T09:57:43.526Z,100.00
2022-11-04T10:00:18.039Z,100.00
2022-11-04T10:03:00.167Z,100.00
2022-11-04T10:05:51.437Z,100.00
2022-11-04T10:08:18.926Z,100.00
2022-11-04T10:11:17.694Z,100.00
2022-11-04T10:14:08.965Z,100.00
2022-11-04T10:16:55.569Z,100.00
2022-11-04T10:19:29.507Z,100.00
2022-11-04T10:22:21.944Z,100.00
2022-11-04T10:25:19.029Z,100.00
2022-11-04T10:27:49.744Z,100.00
2022-11-04T10:44:35.320Z,100.00
2022-11-04T10:47:22.545Z,100.00
2022-11-04T10:50:14.435Z,100.00
2022-11-04T10:52:42.481Z,100.00
2022-11-04T10:55:16.220Z,99.38
2022-11-04T10:57:44.837Z,97.61
2022-11-04T11:00:39.633Z,98.40
2022-11-04T11:03:34.249Z,97.93
2022-11-04T11:06:14.413Z,92.05
2022-11-04T11:08:43.075Z,94.48
2022-11-04T11:11:11.641Z,91.46
2022-11-04T11:13:41.818Z,88.75
2022-11-04T11:16:13.555Z,89.48
2022-11-04T11:18:42.055Z,91.65
2022-11-04T11:21:15.967Z,86.06
2022-11-04T11:23:47.403Z,84.26
2022-11-04T11:26:17.425Z,86.31
2022-11-04T11:28:59.109Z,81.45
2022-11-04T11:31:35.553Z,84.57
2022-11-04T11:34:06.950Z,82.59
2022-11-04T11:36:37.309Z,87.07
2022-11-04T11:39:16.408Z,90.16
2022-11-04T11:42:23.835Z,89.28
2022-11-04T11:44:56.532Z,82.58
2022-11-04T11:47:29.782Z,81.97
2022-11-04T11:50:15.564Z,85.14
2022-11-04T11:52:44.305Z,83.88
2022-11-04T11:55:33.195Z,86.34
2022-11-04T12:01:27.381Z,100.00
2022-11-04T12:09:57.476Z,100.00
2022-11-04T12:12:52.511Z,100.00
2022-11-04T12:15:29.573Z,100.00
2022-11-04T12:18:00.555Z,100.00
2022-11-04T12:20:34.059Z,100.00
2022-11-04T12:23:07.335Z,100.00
2022-11-04T12:26:01.670Z,100.00
2022-11-04T12:28:59.139Z,100.00
2022-11-04T12:32:06.407Z,100.00
2022-11-04T12:34:52.914Z,100.00
2022-11-04T12:37:46.734Z,100.00
2022-11-04T12:40:24.025Z,100.00
2022-11-04T12:43:02.234Z,97.51
2022-11-04T12:45:38.851Z,89.24
2022-11-04T12:48:10.193Z,90.57
2022-11-04T12:50:53.008Z,94.60
2022-11-04T12:53:34.154Z,100.00
2022-11-04T12:56:12.958Z,94.59
2022-11-04T12:58:52.577Z,90.82
2022-11-04T13:01:24.552Z,87.84
2022-11-04T13:03:59.589Z,90.09
2022-11-04T13:06:44.317Z,86.01
2022-11-04T13:09:16.981Z,85.57
2022-11-04T13:11:51.008Z,81.23
2022-11-04T13:14:29.261Z,78.09
2022-11-04T13:17:00.906Z,82.34
2022-11-04T13:19:34.889Z,75.37
2022-11-04T13:22:06.773Z,74.32
2022-11-04T13:24:38.495Z,81.49
2022-11-04T13:27:39.300Z,76.11
2022-11-04T13:30:26.913Z,70.22
2022-11-04T13:32:58.420Z,70.65
2022-11-04T13:35:31.809Z,67.04
2022-11-04T13:38:05.707Z,63.96
2022-11-04T13:41:10.346Z,58.16
2022-11-04T13:43:42.946Z,56.52
2022-11-04T13:46:10.648Z,52.59
2022-11-04T13:48:58.338Z,49.09
2022-11-04T13:51:40.374Z,52.27
2022-11-04T13:54:25.099Z,50.33
2022-11-04T13:57:26.574Z,48.93
2022-11-04T14:00:15.571Z,51.13
2022-11-04T14:02:45.779Z,58.71
2022-11-04T14:05:29.626Z,55.41
2022-11-04T14:08:03.586Z,58.69
2022-11-04T14:10:38.646Z,61.02
2022-11-04T14:13:34.866Z,63.69
2022-11-04T14:16:17.841Z,64.76
2022-11-04T14:18:47.825Z,62.00
2022-11-04T14:21:22.037Z,65.36
2022-11-04T14:23:52.078Z,68.19
2022-11-04T14:26:23.446Z,66.58
2022-11-04T14:29:05.874Z,70.13
2022-11-04T14:31:46.410Z,69.80
2022-11-04T14:34:42.858Z,68.64
2022-11-04T14:37:26.597Z,84.26
2022-11-04T14:39:58.424Z,91.89
2022-11-04T14:42:46.903Z,97.15
2022-11-04T14:45:18.652Z,100.00
2022-11-04T14:47:49.920Z,100.00
2022-11-04T14:50:20.263Z,100.00
2022-11-04T14:52:55.640Z,100.00
2022-11-04T14:55:30.411Z,100.00
2022-11-04T14:58:13.816Z,100.00
2022-11-04T15:01:01.432Z,100.00
2022-11-04T15:06:34.781Z,100.00
2022-11-04T15:09:23.463Z,100.00
2022-11-04T15:12:16.873Z,100.00
2022-11-04T15:14:44.556Z,100.00
2022-11-04T15:17:18.373Z,100.00
2022-11-04T15:19:49.699Z,100.00
2022-11-04T15:22:17.311Z,100.00
2022-11-04T15:24:45.393Z,100.00
2022-11-04T15:27:18.722Z,100.00
2022-11-04T15:29:54.423Z,100.00
2022-11-04T15:32:22.533Z,100.00
2022-11-04T15:34:50.350Z,100.00
2022-11-04T15:37:17.915Z,100.00
2022-11-04T15:39:48.202Z,100.00
2022-11-04T15:42:37.113Z,100.00
2022-11-04T15:45:35.195Z,100.00
2022-11-04T15:48:24.842Z,100.00
2022-11-04T15:51:19.531Z,100.00
2022-11-04T15:54:17.254Z,100.00
2022-11-04T15:56:52.045Z,100.00
2022-11-04T15:59:23.630Z,100.00
2022-11-04T16:01:52.532Z,100.00
2022-11-04T16:04:23.569Z,100.00
2022-11-04T16:07:06.854Z,100.00
2022-11-04T16:09:47.988Z,100.00
2022-11-04T16:12:18.066Z,100.00
2022-11-04T16:14:52.869Z,100.00
2022-11-04T16:17:21.857Z,100.00
2022-11-04T16:19:59.408Z,100.00
2022-11-04T16:22:31.508Z,100.00
2022-11-04T16:25:00.802Z,100.00
2022-11-04T16:27:30.744Z,100.00
2022-11-04T16:30:03.437Z,100.00
2022-11-04T16:32:40.852Z,100.00
2022-11-04T16:35:15.876Z,100.00
2022-11-04T16:37:43.479Z,100.00
2022-11-04T16:40:11.255Z,100.00
2022-11-04T16:42:38.708Z,100.00
2022-11-04T16:45:09.937Z,100.00
2022-11-04T16:47:39.879Z,100.00
2022-11-04T16:50:15.136Z,100.00
2022-11-04T16:52:44.435Z,100.00
2022-11-04T16:55:14.979Z,100.00
2022-11-04T16:57:44.112Z,100.00
2022-11-04T17:00:23.766Z,100.00
2022-11-04T17:02:52.526Z,100.00
2022-11-04T17:05:20.140Z,100.00
2022-11-04T17:07:53.503Z,100.00
2022-11-04T17:10:25.046Z,100.00
2022-11-04T17:12:52.629Z,100.00
2022-11-04T17:15:20.787Z,100.00
2022-11-04T17:17:48.859Z,100.00
2022-11-04T17:20:18.073Z,100.00
2022-11-04T17:22:47.208Z,100.00
2022-11-04T17:25:29.025Z,100.00
2022-11-04T17:27:56.759Z,100.00
2022-11-04T17:30:24.700Z,100.00
2022-11-04T17:32:52.371Z,100.00
2022-11-04T17:35:19.844Z,100.00
2022-11-04T17:37:47.477Z,100.00
2022-11-04T17:40:17.301Z,100.00
2022-11-04T17:43:10.457Z,100.00
2022-11-04T17:45:43.934Z,100.00
2022-11-04T17:48:13.989Z,100.00
2022-11-04T17:50:42.182Z,100.00
2022-11-04T17:53:10.113Z,100.00
2022-11-04T17:55:39.910Z,100.00
2022-11-04T17:58:07.420Z,100.00
2022-11-04T18:00:34.956Z,100.00
2022-11-04T18:03:02.400Z,100.00
2022-11-04T18:05:29.977Z,100.00
2022-11-04T18:07:58.653Z,100.00
2022-11-04T18:10:26.501Z,100.00
2022-11-04T18:12:53.964Z,100.00
2022-11-04T18:15:21.693Z,100.00
2022-11-04T18:17:50.816Z,100.00
2022-11-04T18:20:19.179Z,100.00
2022-11-04T18:22:46.687Z,100.00
2022-11-04T18:25:14.478Z,100.00
2022-11-04T18:27:41.934Z,100.00
2022-11-04T18:30:09.948Z,100.00
2022-11-04T18:32:37.479Z,100.00
2022-11-04T18:35:05.464Z,100.00
2022-11-04T18:37:33.236Z,100.00
2022-11-04T18:40:01.092Z,100.00
2022-11-04T18:42:29.443Z,100.00
2022-11-04T18:44:57.226Z,100.00
2022-11-04T18:47:24.706Z,100.00
2022-11-04T18:49:52.207Z,100.00
2022-11-04T18:52:19.638Z,100.00
2022-11-04T18:54:47.203Z,100.00
2022-11-04T18:57:14.705Z,100.00
2022-11-04T18:59:42.377Z,100.00
2022-11-04T19:02:16.363Z,100.00
2022-11-04T19:04:43.927Z,100.00
2022-11-04T19:07:11.421Z,100.00
2022-11-04T19:09:47.521Z,100.00
2022-11-04T19:12:35.545Z,100.00
2022-11-04T19:15:04.625Z,100.00
2022-11-04T19:17:32.134Z,100.00
2022-11-04T19:19:59.648Z,100.00
2022-11-04T19:22:27.161Z,100.00
2022-11-04T19:24:54.608Z,100.00
2022-11-04T19:27:24.754Z,100.00
2022-11-04T19:29:52.741Z,100.00
2022-11-04T19:32:20.296Z,100.00
2022-11-04T19:34:47.901Z,100.00
2022-11-04T19:37:16.037Z,100.00
2022-11-04T19:39:45.117Z,100.00
2022-11-04T19:42:31.956Z,100.00
2022-11-04T19:45:00.332Z,100.00
2022-11-04T19:47:28.166Z,100.00
2022-11-04T19:49:55.748Z,100.00
2022-11-04T19:52:23.342Z,100.00
2022-11-04T19:54:51.486Z,100.00
2022-11-04T19:57:19.194Z,100.00
2022-11-04T19:59:46.740Z,100.00
2022-11-04T20:02:15.187Z,100.00
2022-11-04T20:04:42.988Z,100.00
2022-11-04T20:07:13.206Z,100.00
2022-11-04T20:09:40.811Z,100.00
2022-11-04T20:12:27.153Z,100.00
2022-11-04T20:14:58.781Z,100.00
2022-11-04T20:17:27.398Z,100.00
2022-11-04T20:19:55.320Z,100.00
2022-11-04T20:22:22.771Z,100.00
2022-11-04T20:24:50.790Z,100.00
2022-11-04T20:27:18.496Z,100.00
2022-11-04T20:29:46.640Z,100.00
2022-11-04T20:32:14.276Z,100.00
2022-11-04T20:34:42.124Z,100.00
2022-11-04T20:37:11.622Z,100.00
2022-11-04T20:39:39.375Z,100.00
2022-11-04T20:42:06.982Z,100.00
2022-11-04T20:44:34.948Z,100.00
2022-11-04T20:47:02.558Z,100.00
2022-11-04T20:49:29.995Z,100.00
2022-11-04T20:51:57.522Z,100.00
2022-11-04T20:54:25.018Z,100.00
2022-11-04T20:56:53.126Z,100.00
2022-11-04T20:59:20.724Z,100.00
2022-11-04T21:01:50.017Z,100.00
2022-11-04T21:04:19.498Z,100.00
2022-11-04T21:06:51.459Z,100.00
2022-11-04T21:09:21.139Z,100.00
2022-11-04T21:11:48.990Z,100.00
2022-11-04T21:14:19.475Z,100.00
2022-11-04T21:16:48.484Z,100.00
2022-11-04T21:19:16.492Z,100.00
2022-11-04T21:21:45.156Z,100.00
2022-11-04T21:24:14.828Z,100.00
2022-11-04T21:26:43.832Z,100.00
2022-11-04T21:29:14.313Z,100.00
2022-11-04T21:31:42.646Z,100.00
2022-11-04T21:34:10.632Z,100.00
2022-11-04T21:36:38.654Z,100.00
2022-11-04T21:39:06.570Z,100.00
2022-11-04T21:41:37.266Z,100.00
2022-11-04T21:44:08.748Z,100.00
2022-11-04T21:46:36.923Z,100.00
2022-11-04T21:49:05.053Z,100.00
2022-11-04T21:51:34.163Z,100.00
2022-11-04T21:54:05.633Z,100.00
2022-11-04T21:56:33.926Z,100.00
2022-11-04T21:59:01.974Z,100.00
2022-11-04T22:01:30.397Z,100.00
2022-11-04T22:03:59.941Z,100.00
2022-11-04T22:06:33.480Z,100.00
2022-11-04T22:09:02.933Z,100.00
2022-11-04T22:11:32.465Z,100.00
2022-11-04T22:14:02.683Z,100.00
2022-11-04T22:16:34.917Z,100.00
2022-11-04T22:19:04.533Z,100.00
2022-11-04T22:21:32.965Z,100.00
2022-11-04T22:24:03.669Z,100.00
2022-11-04T22:26:32.649Z,100.00
2022-11-04T22:29:00.943Z,100.00
2022-11-04T22:31:31.902Z,100.00
2022-11-04T22:34:01.884Z,100.00
2022-11-04T22:36:31.033Z,100.00
2022-11-04T22:38:59.256Z,100.00
2022-11-04T22:41:30.167Z,100.00
2022-11-04T22:43:58.911Z,100.00
2022-11-04T22:46:31.676Z,100.00
2022-11-04T22:49:02.163Z,100.00
2022-11-04T22:51:31.465Z,100.00
2022-11-04T22:54:06.533Z,100.00
2022-11-04T22:56:36.307Z,100.00
2022-11-04T22:59:04.384Z,100.00
2022-11-04T23:01:33.550Z,100.00
2022-11-04T23:04:01.339Z,100.00
2022-11-04T23:06:28.937Z,100.00
2022-11-04T23:08:59.976Z,100.00
2022-11-04T23:11:47.752Z,100.00
2022-11-04T23:14:36.849Z,100.00
2022-11-04T23:17:33.813Z,100.00
2022-11-04T23:20:02.056Z,100.00
2022-11-04T23:22:48.323Z,100.00
2022-11-04T23:25:15.794Z,100.00
2022-11-04T23:28:04.530Z,100.00
2022-11-04T23:30:35.392Z,100.00
2022-11-04T23:33:05.721Z,100.00
2022-11-04T23:36:06.261Z,100.00
2022-11-04T23:38:35.198Z,100.00
2022-11-04T23:41:24.879Z,100.00
2022-11-04T23:43:53.084Z,100.00
2022-11-04T23:46:43.007Z,100.00
2022-11-04T23:49:30.909Z,100.00
2022-11-04T23:52:17.350Z,100.00
2022-11-04T23:55:03.741Z,100.00
2022-11-04T23:57:50.487Z,100.00
